Pomona, Illinois
Current Conditions -  °F | °C
As of 9:52 PM on Wednesday 28 Jan 2015 (Local Time) from KMDH Reporting Station
Clear Clear  
Wind Chill:   Ceiling: Unl
Heat Index:   Visibility: 10mi
Dew Point: -2°   Wind: 15mph
Humidity: 53%   Direction: 180°S
Pressure: 29.97"   Gusts: 23mph
Location:  37.63°N, 89.34°W
Report Text: KMDH 290352Z AUTO 18013G20KT 10SM CLR 07/M02 A2997 RMK AO2 SLP149 T00721017
Loading
Personal Weather Stations






























Interactive Weather Map New forecast layout! Learn more

10-Day Weather Forecast

Advertisements
Track Severe Weather on mobile